sensor_id;sensor_type;location;lat;lon;timestamp;P1;durP1;ratioP1;P2;durP2;ratioP2
295;SDS011;132;48.770;9.200;2023-01-28T00:01:18;14.38;;;7.72;;
295;SDS011;132;48.770;9.200;2023-01-28T00:03:47;13.52;;;7.28;;
295;SDS011;132;48.770;9.200;2023-01-28T00:06:15;14.13;;;7.40;;
295;SDS011;132;48.770;9.200;2023-01-28T00:08:43;13.57;;;7.35;;
295;SDS011;132;48.770;9.200;2023-01-28T00:11:11;12.20;;;7.00;;
295;SDS011;132;48.770;9.200;2023-01-28T00:13:38;13.35;;;7.40;;
295;SDS011;132;48.770;9.200;2023-01-28T00:16:05;15.48;;;7.55;;
295;SDS011;132;48.770;9.200;2023-01-28T00:18:36;14.90;;;7.80;;
295;SDS011;132;48.770;9.200;2023-01-28T00:21:06;14.82;;;7.45;;
295;SDS011;132;48.770;9.200;2023-01-28T00:23:35;12.00;;;6.93;;
295;SDS011;132;48.770;9.200;2023-01-28T00:26:04;12.35;;;7.55;;
295;SDS011;132;48.770;9.200;2023-01-28T00:28:32;11.93;;;7.05;;
295;SDS011;132;48.770;9.200;2023-01-28T00:31:04;14.55;;;7.70;;
295;SDS011;132;48.770;9.200;2023-01-28T00:33:35;15.38;;;7.75;;
295;SDS011;132;48.770;9.200;2023-01-28T00:36:02;12.57;;;7.32;;
295;SDS011;132;48.770;9.200;2023-01-28T00:38:31;13.85;;;7.80;;
295;SDS011;132;48.770;9.200;2023-01-28T00:41:09;13.98;;;8.05;;
295;SDS011;132;48.770;9.200;2023-01-28T00:43:37;12.55;;;7.30;;
295;SDS011;132;48.770;9.200;2023-01-28T00:46:06;12.45;;;7.60;;
295;SDS011;132;48.770;9.200;2023-01-28T00:48:34;12.65;;;7.18;;
295;SDS011;132;48.770;9.200;2023-01-28T00:51:01;12.40;;;6.70;;
295;SDS011;132;48.770;9.200;2023-01-28T00:53:28;11.23;;;7.03;;
295;SDS011;132;48.770;9.200;2023-01-28T00:55:55;16.15;;;7.90;;
295;SDS011;132;48.770;9.200;2023-01-28T00:58:22;12.18;;;6.93;;
295;SDS011;132;48.770;9.200;2023-01-28T01:00:49;13.23;;;7.82;;
295;SDS011;132;48.770;9.200;2023-01-28T01:03:16;13.05;;;7.47;;
295;SDS011;132;48.770;9.200;2023-01-28T01:05:43;13.57;;;7.30;;
295;SDS011;132;48.770;9.200;2023-01-28T01:08:10;11.15;;;6.85;;
295;SDS011;132;48.770;9.200;2023-01-28T01:10:36;10.52;;;6.45;;
295;SDS011;132;48.770;9.200;2023-01-28T01:13:05;12.93;;;7.20;;
295;SDS011;132;48.770;9.200;2023-01-28T01:15:34;12.60;;;7.43;;
295;SDS011;132;48.770;9.200;2023-01-28T01:18:02;11.45;;;6.78;;
295;SDS011;132;48.770;9.200;2023-01-28T01:20:29;12.63;;;7.15;;
295;SDS011;132;48.770;9.200;2023-01-28T01:22:58;11.75;;;6.28;;
295;SDS011;132;48.770;9.200;2023-01-28T01:25:25;10.15;;;6.20;;
295;SDS011;132;48.770;9.200;2023-01-28T01:27:52;13.23;;;7.30;;
295;SDS011;132;48.770;9.200;2023-01-28T01:30:18;11.68;;;6.47;;
295;SDS011;132;48.770;9.200;2023-01-28T01:32:47;11.05;;;6.55;;
295;SDS011;132;48.770;9.200;2023-01-28T01:35:14;12.05;;;7.03;;
295;SDS011;132;48.770;9.200;2023-01-28T01:37:42;11.15;;;6.55;;
295;SDS011;132;48.770;9.200;2023-01-28T01:40:09;11.68;;;6.80;;
295;SDS011;132;48.770;9.200;2023-01-28T01:42:36;12.65;;;6.80;;
295;SDS011;132;48.770;9.200;2023-01-28T01:45:04;13.00;;;7.30;;
295;SDS011;132;48.770;9.200;2023-01-28T01:47:38;11.80;;;6.57;;
295;SDS011;132;48.770;9.200;2023-01-28T01:50:33;10.20;;;6.50;;
295;SDS011;132;48.770;9.200;2023-01-28T01:53:11;13.43;;;7.00;;
295;SDS011;132;48.770;9.200;2023-01-28T01:55:42;12.27;;;6.75;;
295;SDS011;132;48.770;9.200;2023-01-28T01:58:13;12.10;;;7.07;;
295;SDS011;132;48.770;9.200;2023-01-28T02:00:41;10.77;;;6.55;;
295;SDS011;132;48.770;9.200;2023-01-28T02:03:08;12.95;;;6.72;;
295;SDS011;132;48.770;9.200;2023-01-28T02:05:36;12.10;;;7.28;;
295;SDS011;132;48.770;9.200;2023-01-28T02:08:04;9.75;;;6.47;;
295;SDS011;132;48.770;9.200;2023-01-28T02:10:53;10.93;;;6.30;;
295;SDS011;132;48.770;9.200;2023-01-28T02:13:23;8.10;;;5.30;;
295;SDS011;132;48.770;9.200;2023-01-28T02:15:54;12.07;;;6.35;;
295;SDS011;132;48.770;9.200;2023-01-28T02:18:22;12.45;;;6.80;;
295;SDS011;132;48.770;9.200;2023-01-28T02:21:14;11.63;;;6.30;;
295;SDS011;132;48.770;9.200;2023-01-28T02:24:36;10.00;;;6.32;;
295;SDS011;132;48.770;9.200;2023-01-28T02:27:29;8.30;;;5.18;;
295;SDS011;132;48.770;9.200;2023-01-28T02:32:42;8.73;;;5.80;;
295;SDS011;132;48.770;9.200;2023-01-28T02:37:54;10.00;;;6.00;;
295;SDS011;132;48.770;9.200;2023-01-28T02:40:27;11.65;;;6.63;;
295;SDS011;132;48.770;9.200;2023-01-28T02:42:56;10.32;;;6.13;;
295;SDS011;132;48.770;9.200;2023-01-28T02:45:25;11.20;;;6.28;;
295;SDS011;132;48.770;9.200;2023-01-28T02:48:13;8.40;;;5.20;;
295;SDS011;132;48.770;9.200;2023-01-28T02:51:03;10.05;;;6.30;;
295;SDS011;132;48.770;9.200;2023-01-28T02:53:50;10.88;;;6.25;;
295;SDS011;132;48.770;9.200;2023-01-28T02:59:12;9.38;;;5.60;;
295;SDS011;132;48.770;9.200;2023-01-28T03:02:03;11.30;;;6.43;;
295;SDS011;132;48.770;9.200;2023-01-28T03:04:34;8.85;;;5.70;;
295;SDS011;132;48.770;9.200;2023-01-28T03:07:21;11.40;;;6.70;;
295;SDS011;132;48.770;9.200;2023-01-28T03:09:52;9.80;;;5.65;;
295;SDS011;132;48.770;9.200;2023-01-28T03:12:27;10.32;;;6.20;;
295;SDS011;132;48.770;9.200;2023-01-28T03:15:16;9.00;;;5.75;;
295;SDS011;132;48.770;9.200;2023-01-28T03:18:14;9.90;;;5.95;;
295;SDS011;132;48.770;9.200;2023-01-28T03:21:06;10.15;;;6.18;;
295;SDS011;132;48.770;9.200;2023-01-28T03:27:17;9.90;;;5.93;;
295;SDS011;132;48.770;9.200;2023-01-28T03:30:21;11.88;;;7.75;;
295;SDS011;132;48.770;9.200;2023-01-28T03:33:30;14.93;;;8.02;;
295;SDS011;132;48.770;9.200;2023-01-28T03:36:17;12.80;;;7.88;;
295;SDS011;132;48.770;9.200;2023-01-28T03:39:04;14.77;;;7.88;;
295;SDS011;132;48.770;9.200;2023-01-28T03:41:31;12.65;;;7.78;;
295;SDS011;132;48.770;9.200;2023-01-28T03:43:58;12.02;;;7.78;;
295;SDS011;132;48.770;9.200;2023-01-28T03:46:45;12.90;;;8.15;;
295;SDS011;132;48.770;9.200;2023-01-28T03:49:14;12.07;;;7.68;;
295;SDS011;132;48.770;9.200;2023-01-28T03:51:42;11.88;;;7.45;;
295;SDS011;132;48.770;9.200;2023-01-28T03:54:11;13.93;;;7.68;;
295;SDS011;132;48.770;9.200;2023-01-28T03:56:37;13.68;;;8.00;;
295;SDS011;132;48.770;9.200;2023-01-28T03:59:05;13.65;;;7.95;;
295;SDS011;132;48.770;9.200;2023-01-28T04:01:32;14.70;;;7.45;;
295;SDS011;132;48.770;9.200;2023-01-28T04:03:59;14.65;;;8.00;;
295;SDS011;132;48.770;9.200;2023-01-28T04:06:26;15.48;;;8.57;;
295;SDS011;132;48.770;9.200;2023-01-28T04:09:12;13.07;;;8.05;;
295;SDS011;132;48.770;9.200;2023-01-28T04:11:47;16.20;;;9.27;;
295;SDS011;132;48.770;9.200;2023-01-28T04:14:21;14.63;;;8.15;;
295;SDS011;132;48.770;9.200;2023-01-28T04:16:52;17.00;;;9.52;;
295;SDS011;132;48.770;9.200;2023-01-28T04:19:24;13.10;;;8.32;;
295;SDS011;132;48.770;9.200;2023-01-28T04:21:52;18.85;;;9.60;;
295;SDS011;132;48.770;9.200;2023-01-28T04:24:20;16.02;;;8.60;;
295;SDS011;132;48.770;9.200;2023-01-28T04:26:47;15.65;;;9.25;;
295;SDS011;132;48.770;9.200;2023-01-28T04:29:15;17.10;;;9.65;;
295;SDS011;132;48.770;9.200;2023-01-28T04:31:41;14.75;;;8.68;;
295;SDS011;132;48.770;9.200;2023-01-28T04:34:17;17.50;;;9.07;;
295;SDS011;132;48.770;9.200;2023-01-28T04:37:05;17.38;;;9.73;;
295;SDS011;132;48.770;9.200;2023-01-28T04:40:04;15.90;;;9.00;;
295;SDS011;132;48.770;9.200;2023-01-28T04:42:40;17.95;;;10.15;;
295;SDS011;132;48.770;9.200;2023-01-28T04:45:30;17.80;;;9.50;;
295;SDS011;132;48.770;9.200;2023-01-28T04:48:01;17.88;;;9.75;;
295;SDS011;132;48.770;9.200;2023-01-28T04:50:57;17.42;;;10.05;;
295;SDS011;132;48.770;9.200;2023-01-28T04:53:35;17.73;;;9.00;;
295;SDS011;132;48.770;9.200;2023-01-28T04:56:22;16.02;;;10.00;;
295;SDS011;132;48.770;9.200;2023-01-28T04:58:50;14.75;;;8.50;;
295;SDS011;132;48.770;9.200;2023-01-28T05:01:16;17.58;;;9.95;;
295;SDS011;132;48.770;9.200;2023-01-28T05:03:43;16.42;;;9.32;;
295;SDS011;132;48.770;9.200;2023-01-28T05:06:16;20.17;;;10.60;;
295;SDS011;132;48.770;9.200;2023-01-28T05:08:45;17.92;;;10.73;;
295;SDS011;132;48.770;9.200;2023-01-28T05:11:12;14.98;;;8.88;;
295;SDS011;132;48.770;9.200;2023-01-28T05:13:40;16.80;;;9.82;;
295;SDS011;132;48.770;9.200;2023-01-28T05:16:08;18.20;;;10.35;;
295;SDS011;132;48.770;9.200;2023-01-28T05:18:35;19.92;;;11.10;;
295;SDS011;132;48.770;9.200;2023-01-28T05:21:10;19.05;;;11.40;;
295;SDS011;132;48.770;9.200;2023-01-28T05:23:39;16.85;;;9.73;;
295;SDS011;132;48.770;9.200;2023-01-28T05:26:05;16.20;;;9.75;;
295;SDS011;132;48.770;9.200;2023-01-28T05:28:33;16.58;;;9.45;;
295;SDS011;132;48.770;9.200;2023-01-28T05:31:05;18.00;;;9.88;;
295;SDS011;132;48.770;9.200;2023-01-28T05:33:32;16.08;;;8.90;;
295;SDS011;132;48.770;9.200;2023-01-28T05:35:59;15.68;;;9.15;;
295;SDS011;132;48.770;9.200;2023-01-28T05:38:25;16.52;;;9.82;;
295;SDS011;132;48.770;9.200;2023-01-28T05:40:52;15.40;;;8.65;;
295;SDS011;132;48.770;9.200;2023-01-28T05:43:18;18.80;;;10.13;;
295;SDS011;132;48.770;9.200;2023-01-28T05:46:00;17.55;;;9.70;;
295;SDS011;132;48.770;9.200;2023-01-28T05:48:34;20.25;;;11.15;;
295;SDS011;132;48.770;9.200;2023-01-28T05:51:15;19.45;;;8.70;;
295;SDS011;132;48.770;9.200;2023-01-28T05:53:46;19.00;;;10.27;;
295;SDS011;132;48.770;9.200;2023-01-28T05:56:13;16.17;;;9.10;;
295;SDS011;132;48.770;9.200;2023-01-28T05:58:40;19.13;;;10.50;;
295;SDS011;132;48.770;9.200;2023-01-28T06:01:08;16.35;;;9.52;;
295;SDS011;132;48.770;9.200;2023-01-28T06:03:39;16.88;;;9.15;;
295;SDS011;132;48.770;9.200;2023-01-28T06:06:06;18.73;;;10.00;;
295;SDS011;132;48.770;9.200;2023-01-28T06:08:34;18.67;;;10.40;;
295;SDS011;132;48.770;9.200;2023-01-28T06:11:02;17.15;;;10.63;;
295;SDS011;132;48.770;9.200;2023-01-28T06:13:32;20.58;;;11.07;;
295;SDS011;132;48.770;9.200;2023-01-28T06:16:25;16.63;;;9.82;;
295;SDS011;132;48.770;9.200;2023-01-28T06:19:20;15.52;;;8.75;;
295;SDS011;132;48.770;9.200;2023-01-28T06:21:46;18.67;;;10.27;;
295;SDS011;132;48.770;9.200;2023-01-28T06:24:13;15.82;;;9.40;;
295;SDS011;132;48.770;9.200;2023-01-28T06:26:40;16.48;;;10.00;;
295;SDS011;132;48.770;9.200;2023-01-28T06:29:06;17.40;;;10.10;;
295;SDS011;132;48.770;9.200;2023-01-28T06:31:33;17.15;;;10.20;;
295;SDS011;132;48.770;9.200;2023-01-28T06:33:59;17.55;;;9.82;;
295;SDS011;132;48.770;9.200;2023-01-28T06:36:25;19.00;;;10.77;;
295;SDS011;132;48.770;9.200;2023-01-28T06:38:52;19.67;;;11.15;;
295;SDS011;132;48.770;9.200;2023-01-28T06:41:18;16.35;;;9.27;;
295;SDS011;132;48.770;9.200;2023-01-28T06:43:45;17.63;;;10.50;;
295;SDS011;132;48.770;9.200;2023-01-28T06:46:11;19.20;;;10.68;;
295;SDS011;132;48.770;9.200;2023-01-28T06:48:37;17.75;;;10.43;;
295;SDS011;132;48.770;9.200;2023-01-28T06:51:04;18.35;;;10.40;;
295;SDS011;132;48.770;9.200;2023-01-28T06:53:30;18.98;;;10.15;;
295;SDS011;132;48.770;9.200;2023-01-28T06:55:57;19.98;;;10.98;;
295;SDS011;132;48.770;9.200;2023-01-28T06:58:23;26.33;;;11.50;;
295;SDS011;132;48.770;9.200;2023-01-28T07:00:50;19.50;;;10.48;;
295;SDS011;132;48.770;9.200;2023-01-28T07:03:17;20.30;;;11.05;;
295;SDS011;132;48.770;9.200;2023-01-28T07:05:44;17.60;;;9.68;;
295;SDS011;132;48.770;9.200;2023-01-28T07:08:10;19.00;;;10.15;;
295;SDS011;132;48.770;9.200;2023-01-28T07:10:36;14.80;;;9.05;;
295;SDS011;132;48.770;9.200;2023-01-28T07:13:03;20.27;;;11.18;;
295;SDS011;132;48.770;9.200;2023-01-28T07:15:29;19.65;;;11.00;;
295;SDS011;132;48.770;9.200;2023-01-28T07:17:55;19.58;;;10.77;;
295;SDS011;132;48.770;9.200;2023-01-28T07:20:22;19.75;;;10.30;;
295;SDS011;132;48.770;9.200;2023-01-28T07:22:48;16.23;;;9.32;;
295;SDS011;132;48.770;9.200;2023-01-28T07:25:15;19.85;;;10.43;;
295;SDS011;132;48.770;9.200;2023-01-28T07:27:48;19.77;;;11.32;;
295;SDS011;132;48.770;9.200;2023-01-28T07:30:16;18.23;;;11.10;;
295;SDS011;132;48.770;9.200;2023-01-28T07:32:43;15.88;;;9.90;;
295;SDS011;132;48.770;9.200;2023-01-28T07:35:10;20.65;;;11.38;;
295;SDS011;132;48.770;9.200;2023-01-28T07:37:37;17.45;;;10.63;;
295;SDS011;132;48.770;9.200;2023-01-28T07:40:04;18.98;;;10.52;;
295;SDS011;132;48.770;9.200;2023-01-28T07:42:31;18.42;;;10.45;;
295;SDS011;132;48.770;9.200;2023-01-28T07:45:03;18.65;;;11.25;;
295;SDS011;132;48.770;9.200;2023-01-28T07:47:30;20.38;;;10.65;;
295;SDS011;132;48.770;9.200;2023-01-28T07:49:56;20.13;;;11.18;;
295;SDS011;132;48.770;9.200;2023-01-28T07:52:22;15.32;;;9.40;;
295;SDS011;132;48.770;9.200;2023-01-28T07:54:49;19.73;;;11.00;;
295;SDS011;132;48.770;9.200;2023-01-28T07:57:15;19.35;;;10.10;;
295;SDS011;132;48.770;9.200;2023-01-28T07:59:48;17.40;;;10.20;;
295;SDS011;132;48.770;9.200;2023-01-28T08:02:16;17.30;;;10.18;;
295;SDS011;132;48.770;9.200;2023-01-28T08:04:42;20.15;;;11.88;;
295;SDS011;132;48.770;9.200;2023-01-28T08:07:09;19.17;;;10.43;;
295;SDS011;132;48.770;9.200;2023-01-28T08:09:35;19.40;;;10.55;;
295;SDS011;132;48.770;9.200;2023-01-28T08:12:02;23.90;;;10.48;;
295;SDS011;132;48.770;9.200;2023-01-28T08:14:29;22.58;;;11.38;;
295;SDS011;132;48.770;9.200;2023-01-28T08:16:56;17.98;;;10.50;;
295;SDS011;132;48.770;9.200;2023-01-28T08:19:22;19.80;;;11.50;;
295;SDS011;132;48.770;9.200;2023-01-28T08:21:49;21.08;;;11.40;;
295;SDS011;132;48.770;9.200;2023-01-28T08:24:16;19.10;;;11.52;;
295;SDS011;132;48.770;9.200;2023-01-28T08:26:42;22.45;;;12.65;;
295;SDS011;132;48.770;9.200;2023-01-28T08:29:08;23.38;;;12.15;;
295;SDS011;132;48.770;9.200;2023-01-28T08:31:35;21.08;;;11.65;;
295;SDS011;132;48.770;9.200;2023-01-28T08:34:01;18.20;;;10.07;;
295;SDS011;132;48.770;9.200;2023-01-28T08:36:28;20.05;;;11.75;;
295;SDS011;132;48.770;9.200;2023-01-28T08:38:57;21.52;;;12.20;;
295;SDS011;132;48.770;9.200;2023-01-28T08:41:24;20.67;;;12.15;;
295;SDS011;132;48.770;9.200;2023-01-28T08:43:50;21.55;;;11.35;;
295;SDS011;132;48.770;9.200;2023-01-28T08:46:17;21.63;;;11.77;;
295;SDS011;132;48.770;9.200;2023-01-28T08:48:43;19.67;;;11.40;;
295;SDS011;132;48.770;9.200;2023-01-28T08:51:09;25.45;;;13.25;;
295;SDS011;132;48.770;9.200;2023-01-28T08:53:36;19.50;;;10.75;;
295;SDS011;132;48.770;9.200;2023-01-28T08:56:02;21.27;;;11.95;;
295;SDS011;132;48.770;9.200;2023-01-28T08:58:29;21.40;;;11.13;;
295;SDS011;132;48.770;9.200;2023-01-28T09:00:55;19.60;;;11.07;;
295;SDS011;132;48.770;9.200;2023-01-28T09:03:22;23.67;;;12.95;;
295;SDS011;132;48.770;9.200;2023-01-28T09:05:48;23.30;;;13.35;;
295;SDS011;132;48.770;9.200;2023-01-28T09:08:15;21.77;;;12.02;;
295;SDS011;132;48.770;9.200;2023-01-28T09:10:41;20.25;;;11.40;;
295;SDS011;132;48.770;9.200;2023-01-28T09:13:09;24.63;;;12.65;;
295;SDS011;132;48.770;9.200;2023-01-28T09:15:38;24.58;;;13.70;;
295;SDS011;132;48.770;9.200;2023-01-28T09:18:05;18.83;;;10.88;;
295;SDS011;132;48.770;9.200;2023-01-28T09:20:31;21.60;;;12.10;;
295;SDS011;132;48.770;9.200;2023-01-28T09:22:59;21.20;;;12.05;;
295;SDS011;132;48.770;9.200;2023-01-28T09:25:26;21.17;;;11.02;;
295;SDS011;132;48.770;9.200;2023-01-28T09:27:52;22.65;;;12.68;;
295;SDS011;132;48.770;9.200;2023-01-28T09:30:19;22.77;;;12.60;;
295;SDS011;132;48.770;9.200;2023-01-28T09:32:48;21.73;;;11.88;;
295;SDS011;132;48.770;9.200;2023-01-28T09:35:16;23.75;;;13.30;;
295;SDS011;132;48.770;9.200;2023-01-28T09:37:42;23.08;;;12.90;;
295;SDS011;132;48.770;9.200;2023-01-28T09:40:11;23.20;;;12.75;;
295;SDS011;132;48.770;9.200;2023-01-28T09:45:41;23.42;;;13.07;;
295;SDS011;132;48.770;9.200;2023-01-28T09:48:22;20.65;;;10.85;;
295;SDS011;132;48.770;9.200;2023-01-28T09:50:57;24.35;;;13.15;;
295;SDS011;132;48.770;9.200;2023-01-28T09:53:30;23.95;;;12.95;;
295;SDS011;132;48.770;9.200;2023-01-28T09:56:02;23.88;;;12.70;;
295;SDS011;132;48.770;9.200;2023-01-28T09:58:32;25.33;;;13.00;;
295;SDS011;132;48.770;9.200;2023-01-28T10:01:00;23.98;;;12.43;;
295;SDS011;132;48.770;9.200;2023-01-28T10:06:56;25.15;;;13.88;;
295;SDS011;132;48.770;9.200;2023-01-28T10:12:03;24.40;;;13.55;;
295;SDS011;132;48.770;9.200;2023-01-28T10:17:44;25.23;;;14.05;;
295;SDS011;132;48.770;9.200;2023-01-28T10:20:16;24.73;;;14.05;;
295;SDS011;132;48.770;9.200;2023-01-28T10:22:53;27.80;;;14.20;;
295;SDS011;132;48.770;9.200;2023-01-28T10:25:27;26.08;;;13.95;;
295;SDS011;132;48.770;9.200;2023-01-28T10:27:56;25.10;;;13.80;;
295;SDS011;132;48.770;9.200;2023-01-28T10:30:24;23.60;;;12.88;;
295;SDS011;132;48.770;9.200;2023-01-28T10:32:54;27.33;;;13.68;;
295;SDS011;132;48.770;9.200;2023-01-28T10:35:45;24.20;;;13.15;;
295;SDS011;132;48.770;9.200;2023-01-28T10:38:14;24.67;;;12.80;;
295;SDS011;132;48.770;9.200;2023-01-28T10:40:45;22.52;;;12.70;;
295;SDS011;132;48.770;9.200;2023-01-28T10:43:17;26.75;;;13.32;;
295;SDS011;132;48.770;9.200;2023-01-28T10:48:43;30.23;;;15.73;;
295;SDS011;132;48.770;9.200;2023-01-28T10:51:13;27.23;;;14.45;;
295;SDS011;132;48.770;9.200;2023-01-28T10:53:41;24.98;;;13.70;;
295;SDS011;132;48.770;9.200;2023-01-28T10:56:25;24.20;;;13.50;;
295;SDS011;132;48.770;9.200;2023-01-28T10:59:04;26.35;;;14.05;;
295;SDS011;132;48.770;9.200;2023-01-28T11:01:44;27.48;;;13.80;;
295;SDS011;132;48.770;9.200;2023-01-28T11:06:50;26.92;;;14.23;;
295;SDS011;132;48.770;9.200;2023-01-28T11:09:22;23.98;;;13.65;;
295;SDS011;132;48.770;9.200;2023-01-28T11:11:51;22.63;;;12.20;;
295;SDS011;132;48.770;9.200;2023-01-28T11:14:21;24.50;;;13.20;;
295;SDS011;132;48.770;9.200;2023-01-28T11:16:50;25.92;;;13.82;;
295;SDS011;132;48.770;9.200;2023-01-28T11:19:20;26.35;;;12.95;;
295;SDS011;132;48.770;9.200;2023-01-28T11:21:52;24.15;;;13.20;;
295;SDS011;132;48.770;9.200;2023-01-28T11:24:22;22.50;;;12.20;;
295;SDS011;132;48.770;9.200;2023-01-28T11:26:54;24.80;;;12.70;;
295;SDS011;132;48.770;9.200;2023-01-28T11:29:24;24.20;;;14.00;;
295;SDS011;132;48.770;9.200;2023-01-28T11:31:51;26.05;;;13.50;;
295;SDS011;132;48.770;9.200;2023-01-28T11:34:18;27.98;;;13.55;;
295;SDS011;132;48.770;9.200;2023-01-28T11:36:49;27.02;;;14.23;;
295;SDS011;132;48.770;9.200;2023-01-28T11:39:24;24.83;;;14.05;;
295;SDS011;132;48.770;9.200;2023-01-28T11:41:53;25.23;;;13.95;;
295;SDS011;132;48.770;9.200;2023-01-28T11:44:28;24.67;;;12.98;;
295;SDS011;132;48.770;9.200;2023-01-28T11:51:59;27.27;;;14.55;;
295;SDS011;132;48.770;9.200;2023-01-28T11:54:31;26.80;;;13.98;;
295;SDS011;132;48.770;9.200;2023-01-28T12:08:19;27.48;;;13.73;;
295;SDS011;132;48.770;9.200;2023-01-28T12:10:58;27.55;;;14.02;;
295;SDS011;132;48.770;9.200;2023-01-28T12:13:47;32.90;;;15.05;;
295;SDS011;132;48.770;9.200;2023-01-28T12:19:13;23.90;;;13.23;;
295;SDS011;132;48.770;9.200;2023-01-28T12:27:47;28.15;;;13.77;;
295;SDS011;132;48.770;9.200;2023-01-28T12:33:03;27.27;;;14.00;;
295;SDS011;132;48.770;9.200;2023-01-28T12:35:52;25.85;;;13.57;;
295;SDS011;132;48.770;9.200;2023-01-28T12:38:38;26.52;;;13.85;;
295;SDS011;132;48.770;9.200;2023-01-28T12:41:22;27.42;;;13.75;;
295;SDS011;132;48.770;9.200;2023-01-28T12:46:46;28.25;;;14.25;;
295;SDS011;132;48.770;9.200;2023-01-28T12:52:14;28.10;;;13.65;;
295;SDS011;132;48.770;9.200;2023-01-28T12:55:00;26.52;;;12.70;;
295;SDS011;132;48.770;9.200;2023-01-28T12:57:28;25.55;;;13.20;;
295;SDS011;132;48.770;9.200;2023-01-28T13:00:02;25.80;;;13.52;;
295;SDS011;132;48.770;9.200;2023-01-28T13:02:46;28.08;;;13.45;;
295;SDS011;132;48.770;9.200;2023-01-28T13:05:23;25.45;;;12.73;;
295;SDS011;132;48.770;9.200;2023-01-28T13:08:05;27.73;;;12.98;;
295;SDS011;132;48.770;9.200;2023-01-28T13:10:42;22.85;;;12.68;;
295;SDS011;132;48.770;9.200;2023-01-28T13:13:16;22.45;;;11.70;;
295;SDS011;132;48.770;9.200;2023-01-28T13:16:04;17.90;;;9.40;;
295;SDS011;132;48.770;9.200;2023-01-28T13:21:14;21.52;;;10.65;;
295;SDS011;132;48.770;9.200;2023-01-28T13:23:45;22.45;;;10.82;;
295;SDS011;132;48.770;9.200;2023-01-28T13:28:43;20.10;;;10.85;;
295;SDS011;132;48.770;9.200;2023-01-28T13:31:11;22.80;;;10.05;;
295;SDS011;132;48.770;9.200;2023-01-28T13:33:43;18.35;;;9.75;;
295;SDS011;132;48.770;9.200;2023-01-28T13:36:31;15.18;;;8.50;;
295;SDS011;132;48.770;9.200;2023-01-28T13:41:52;15.63;;;7.40;;
295;SDS011;132;48.770;9.200;2023-01-28T13:44:46;15.05;;;7.65;;
295;SDS011;132;48.770;9.200;2023-01-28T13:47:20;16.08;;;8.63;;
295;SDS011;132;48.770;9.200;2023-01-28T13:50:03;20.40;;;9.07;;
295;SDS011;132;48.770;9.200;2023-01-28T13:55:35;17.73;;;9.00;;
295;SDS011;132;48.770;9.200;2023-01-28T13:58:24;17.10;;;9.05;;
295;SDS011;132;48.770;9.200;2023-01-28T14:06:59;18.00;;;9.75;;
295;SDS011;132;48.770;9.200;2023-01-28T14:15:36;18.52;;;9.68;;
295;SDS011;132;48.770;9.200;2023-01-28T14:18:26;19.15;;;9.60;;
295;SDS011;132;48.770;9.200;2023-01-28T14:21:11;19.08;;;10.50;;
295;SDS011;132;48.770;9.200;2023-01-28T14:24:14;22.00;;;11.32;;
295;SDS011;132;48.770;9.200;2023-01-28T14:26:45;19.88;;;10.43;;
295;SDS011;132;48.770;9.200;2023-01-28T14:32:17;23.40;;;10.90;;
295;SDS011;132;48.770;9.200;2023-01-28T14:34:46;23.05;;;10.32;;
295;SDS011;132;48.770;9.200;2023-01-28T14:37:14;19.58;;;9.63;;
295;SDS011;132;48.770;9.200;2023-01-28T14:39:44;18.25;;;9.73;;
295;SDS011;132;48.770;9.200;2023-01-28T14:42:21;17.05;;;9.38;;
295;SDS011;132;48.770;9.200;2023-01-28T14:47:42;22.05;;;12.52;;
295;SDS011;132;48.770;9.200;2023-01-28T15:01:45;18.65;;;10.82;;
295;SDS011;132;48.770;9.200;2023-01-28T15:04:26;14.93;;;9.10;;
295;SDS011;132;48.770;9.200;2023-01-28T15:07:00;12.45;;;7.82;;
295;SDS011;132;48.770;9.200;2023-01-28T15:09:40;17.85;;;8.50;;
295;SDS011;132;48.770;9.200;2023-01-28T15:12:06;15.27;;;8.27;;
295;SDS011;132;48.770;9.200;2023-01-28T15:14:33;12.00;;;7.60;;
295;SDS011;132;48.770;9.200;2023-01-28T15:17:00;14.10;;;9.25;;
295;SDS011;132;48.770;9.200;2023-01-28T15:19:31;15.07;;;8.90;;
295;SDS011;132;48.770;9.200;2023-01-28T15:22:04;16.02;;;8.52;;
295;SDS011;132;48.770;9.200;2023-01-28T15:24:35;15.35;;;8.60;;
295;SDS011;132;48.770;9.200;2023-01-28T15:27:11;14.57;;;8.38;;
295;SDS011;132;48.770;9.200;2023-01-28T15:29:57;14.15;;;8.10;;
295;SDS011;132;48.770;9.200;2023-01-28T15:32:25;15.18;;;9.45;;
295;SDS011;132;48.770;9.200;2023-01-28T15:34:58;20.13;;;9.38;;
295;SDS011;132;48.770;9.200;2023-01-28T15:37:25;15.90;;;9.60;;
295;SDS011;132;48.770;9.200;2023-01-28T15:40:02;17.17;;;10.30;;
295;SDS011;132;48.770;9.200;2023-01-28T15:42:31;15.80;;;9.65;;
295;SDS011;132;48.770;9.200;2023-01-28T15:44:58;23.42;;;13.52;;
295;SDS011;132;48.770;9.200;2023-01-28T15:47:26;20.40;;;11.40;;
295;SDS011;132;48.770;9.200;2023-01-28T15:49:58;15.88;;;9.07;;
295;SDS011;132;48.770;9.200;2023-01-28T15:53:00;14.38;;;8.13;;
295;SDS011;132;48.770;9.200;2023-01-28T15:55:27;14.48;;;8.63;;
295;SDS011;132;48.770;9.200;2023-01-28T16:00:48;13.35;;;7.75;;
295;SDS011;132;48.770;9.200;2023-01-28T16:03:16;20.10;;;8.32;;
295;SDS011;132;48.770;9.200;2023-01-28T16:05:52;17.30;;;8.30;;
295;SDS011;132;48.770;9.200;2023-01-28T16:08:41;11.35;;;7.50;;
295;SDS011;132;48.770;9.200;2023-01-28T16:11:23;16.00;;;8.35;;
295;SDS011;132;48.770;9.200;2023-01-28T16:13:51;11.90;;;7.75;;
295;SDS011;132;48.770;9.200;2023-01-28T16:16:29;16.23;;;8.85;;
295;SDS011;132;48.770;9.200;2023-01-28T16:18:59;17.17;;;8.75;;
295;SDS011;132;48.770;9.200;2023-01-28T16:21:30;13.65;;;7.50;;
295;SDS011;132;48.770;9.200;2023-01-28T16:24:04;14.63;;;9.15;;
295;SDS011;132;48.770;9.200;2023-01-28T16:26:34;20.35;;;10.18;;
295;SDS011;132;48.770;9.200;2023-01-28T16:29:10;19.50;;;10.30;;
295;SDS011;132;48.770;9.200;2023-01-28T16:31:40;17.95;;;9.00;;
295;SDS011;132;48.770;9.200;2023-01-28T16:34:08;17.80;;;9.25;;
295;SDS011;132;48.770;9.200;2023-01-28T16:36:35;14.77;;;7.93;;
295;SDS011;132;48.770;9.200;2023-01-28T16:39:02;15.93;;;7.82;;
295;SDS011;132;48.770;9.200;2023-01-28T16:41:31;15.90;;;7.35;;
295;SDS011;132;48.770;9.200;2023-01-28T16:44:02;11.90;;;7.57;;
295;SDS011;132;48.770;9.200;2023-01-28T16:46:30;18.90;;;10.88;;
295;SDS011;132;48.770;9.200;2023-01-28T16:49:01;19.90;;;10.95;;
295;SDS011;132;48.770;9.200;2023-01-28T16:51:27;14.75;;;9.20;;
295;SDS011;132;48.770;9.200;2023-01-28T16:53:54;15.05;;;8.38;;
295;SDS011;132;48.770;9.200;2023-01-28T16:56:24;15.02;;;8.57;;
295;SDS011;132;48.770;9.200;2023-01-28T16:58:53;16.02;;;8.30;;
295;SDS011;132;48.770;9.200;2023-01-28T17:01:20;14.43;;;8.27;;
295;SDS011;132;48.770;9.200;2023-01-28T17:03:47;13.55;;;7.90;;
295;SDS011;132;48.770;9.200;2023-01-28T17:06:15;12.63;;;8.20;;
295;SDS011;132;48.770;9.200;2023-01-28T17:08:43;12.65;;;8.00;;
295;SDS011;132;48.770;9.200;2023-01-28T17:11:13;13.55;;;7.55;;
295;SDS011;132;48.770;9.200;2023-01-28T17:13:40;12.85;;;7.45;;
295;SDS011;132;48.770;9.200;2023-01-28T17:16:06;12.43;;;7.22;;
295;SDS011;132;48.770;9.200;2023-01-28T17:18:33;17.05;;;8.35;;
295;SDS011;132;48.770;9.200;2023-01-28T17:21:01;12.40;;;8.18;;
295;SDS011;132;48.770;9.200;2023-01-28T17:23:29;13.05;;;8.10;;
295;SDS011;132;48.770;9.200;2023-01-28T17:25:55;12.32;;;8.10;;
295;SDS011;132;48.770;9.200;2023-01-28T17:28:27;14.20;;;8.02;;
295;SDS011;132;48.770;9.200;2023-01-28T17:30:53;18.27;;;9.32;;
295;SDS011;132;48.770;9.200;2023-01-28T17:33:20;19.50;;;11.15;;
295;SDS011;132;48.770;9.200;2023-01-28T17:35:47;15.90;;;8.77;;
295;SDS011;132;48.770;9.200;2023-01-28T17:38:13;14.25;;;8.07;;
295;SDS011;132;48.770;9.200;2023-01-28T17:40:40;11.55;;;7.70;;